createdAt,value
2022-08-16T00:02:59.031Z,25.72
2022-08-16T00:06:02.588Z,25.44
2022-08-16T00:09:07.761Z,25.14
2022-08-16T00:12:18.078Z,25.11
2022-08-16T00:15:25.284Z,25.44
2022-08-16T00:18:48.636Z,25.34
2022-08-16T00:21:55.248Z,25.58
2022-08-16T00:25:03.253Z,25.58
2022-08-16T00:28:07.266Z,25.14
2022-08-16T00:31:11.539Z,25.48
2022-08-16T00:34:18.125Z,25.43
2022-08-16T00:37:24.601Z,25.54
2022-08-16T00:40:43.739Z,25.07
2022-08-16T00:43:53.029Z,24.88
2022-08-16T00:47:06.450Z,24.63
2022-08-16T00:50:11.765Z,24.83
2022-08-16T00:53:18.756Z,24.83
2022-08-16T00:56:58.035Z,24.87
2022-08-16T00:59:59.089Z,25.14
2022-08-16T01:03:12.598Z,25.03
2022-08-16T01:06:39.679Z,24.92
2022-08-16T01:09:43.778Z,25.12
2022-08-16T01:12:49.194Z,24.86
2022-08-16T01:16:03.690Z,25.07
2022-08-16T01:19:19.665Z,25.20
2022-08-16T01:22:47.141Z,25.12
2022-08-16T01:26:00.185Z,25.10
2022-08-16T01:29:35.715Z,25.29
2022-08-16T01:33:02.159Z,24.80
2022-08-16T01:36:15.387Z,25.02
2022-08-16T01:39:21.783Z,24.82
2022-08-16T01:42:28.395Z,24.69
2022-08-16T01:45:40.852Z,24.78
2022-08-16T01:48:48.868Z,24.62
2022-08-16T01:51:57.169Z,24.59
2022-08-16T01:55:27.331Z,24.75
2022-08-16T01:58:40.872Z,23.91
2022-08-16T02:01:59.993Z,24.73
2022-08-16T02:05:06.662Z,24.58
2022-08-16T02:08:10.749Z,24.58
2022-08-16T02:11:48.545Z,24.55
2022-08-16T02:14:59.436Z,24.73
2022-08-16T02:18:04.493Z,24.40
2022-08-16T02:21:13.051Z,24.21
2022-08-16T02:24:31.588Z,24.54
2022-08-16T02:27:36.058Z,24.45
2022-08-16T02:30:44.290Z,24.50
2022-08-16T02:33:53.530Z,24.08
2022-08-16T02:37:05.499Z,24.37
2022-08-16T02:40:12.544Z,24.09
2022-08-16T02:43:20.707Z,24.30
2022-08-16T02:46:33.610Z,24.15
2022-08-16T02:50:28.006Z,24.32
2022-08-16T02:53:02.909Z,24.48
2022-08-16T02:56:11.174Z,24.57
2022-08-16T02:59:15.007Z,24.35
2022-08-16T03:02:21.132Z,24.60
2022-08-16T03:05:36.688Z,24.53
2022-08-16T03:08:50.323Z,24.65
2022-08-16T03:11:58.646Z,24.54
2022-08-16T03:15:05.076Z,24.48
2022-08-16T03:18:18.753Z,24.67
2022-08-16T03:21:38.288Z,24.50
2022-08-16T03:24:44.694Z,24.42
2022-08-16T03:27:48.710Z,24.22
2022-08-16T03:30:55.413Z,24.33
2022-08-16T03:34:01.257Z,24.38
2022-08-16T03:37:05.740Z,23.81
2022-08-16T03:40:31.785Z,24.10
2022-08-16T03:43:51.379Z,24.28
2022-08-16T03:46:58.264Z,24.44
2022-08-16T03:50:26.146Z,24.42
2022-08-16T03:53:37.846Z,24.61
2022-08-16T03:56:57.068Z,24.56
2022-08-16T04:00:20.595Z,24.84
2022-08-16T04:03:38.975Z,25.14
2022-08-16T04:06:46.986Z,25.29
2022-08-16T04:09:50.908Z,25.51
2022-08-16T04:13:00.666Z,25.60
2022-08-16T04:16:26.522Z,25.44
2022-08-16T04:19:37.898Z,25.30
2022-08-16T04:22:51.959Z,25.34
2022-08-16T04:25:55.425Z,25.35
2022-08-16T04:29:16.761Z,25.71
2022-08-16T04:32:23.331Z,25.37
2022-08-16T04:35:34.167Z,25.42
2022-08-16T04:38:39.382Z,25.88
2022-08-16T04:41:45.439Z,26.02
2022-08-16T04:44:54.668Z,25.82
2022-08-16T04:48:02.487Z,26.07
2022-08-16T04:51:13.420Z,25.76
2022-08-16T04:54:23.494Z,26.38
2022-08-16T04:57:30.195Z,26.24
2022-08-16T05:00:36.136Z,26.11
2022-08-16T05:04:00.468Z,26.56
2022-08-16T05:07:10.942Z,26.70
2022-08-16T05:10:36.953Z,26.59
2022-08-16T05:13:45.850Z,27.04
2022-08-16T05:16:55.064Z,26.40
2022-08-16T05:19:59.280Z,26.76
2022-08-16T05:23:15.044Z,26.94
2022-08-16T05:26:21.651Z,26.49
2022-08-16T05:29:59.435Z,26.77
2022-08-16T05:32:53.284Z,26.98
2022-08-16T05:35:59.040Z,27.16
2022-08-16T05:39:10.190Z,27.43
2022-08-16T05:42:16.305Z,27.54
2022-08-16T05:45:23.869Z,27.68
2022-08-16T05:48:31.845Z,27.54
2022-08-16T05:51:41.910Z,27.67
2022-08-16T05:55:01.130Z,27.95
2022-08-16T05:58:31.575Z,28.24
2022-08-16T06:01:37.845Z,28.01
2022-08-16T06:04:45.149Z,28.41
2022-08-16T06:07:58.216Z,28.66
2022-08-16T06:11:13.264Z,29.12
2022-08-16T06:14:21.268Z,29.00
2022-08-16T06:17:24.708Z,28.87
2022-08-16T06:20:55.909Z,29.42
2022-08-16T06:24:01.264Z,29.33
2022-08-16T06:27:08.532Z,29.19
2022-08-16T06:30:19.857Z,28.69
2022-08-16T06:33:25.452Z,29.14
2022-08-16T06:36:29.386Z,29.96
2022-08-16T06:39:49.337Z,29.72
2022-08-16T06:43:13.492Z,30.11
2022-08-16T06:46:34.262Z,30.12
2022-08-16T06:49:52.849Z,30.30
2022-08-16T06:53:06.825Z,30.47
2022-08-16T06:56:22.972Z,30.93
2022-08-16T06:59:58.110Z,31.04
2022-08-16T07:03:27.651Z,31.55
2022-08-16T07:06:34.062Z,31.25
2022-08-16T07:09:44.660Z,31.75
2022-08-16T07:13:03.407Z,32.11
2022-08-16T07:16:16.831Z,31.37
2022-08-16T07:19:33.663Z,31.91
2022-08-16T07:22:53.145Z,31.61
2022-08-16T07:26:24.928Z,32.48
2022-08-16T07:29:32.107Z,32.58
2022-08-16T07:32:37.080Z,32.48
2022-08-16T07:35:49.578Z,32.04
2022-08-16T07:38:55.528Z,32.54
2022-08-16T07:41:59.754Z,32.84
2022-08-16T07:45:03.421Z,33.39
2022-08-16T07:48:14.958Z,33.30
2022-08-16T07:51:24.379Z,33.23
2022-08-16T07:54:37.862Z,33.86
2022-08-16T07:58:00.587Z,33.58
2022-08-16T08:01:10.764Z,34.16
2022-08-16T08:04:26.730Z,33.44
2022-08-16T08:07:38.782Z,33.88
2022-08-16T08:10:49.160Z,33.49
2022-08-16T08:13:54.441Z,33.97
2022-08-16T08:17:01.324Z,33.60
2022-08-16T08:20:08.859Z,33.34
2022-08-16T08:23:15.823Z,33.99
2022-08-16T08:26:22.299Z,34.14
2022-08-16T08:29:37.086Z,34.27
2022-08-16T08:33:01.822Z,34.14
2022-08-16T08:36:21.793Z,34.62
2022-08-16T08:39:30.444Z,34.39
2022-08-16T08:42:36.633Z,34.11
2022-08-16T08:45:52.773Z,33.97
2022-08-16T08:48:59.210Z,33.67
2022-08-16T08:52:11.629Z,34.10
2022-08-16T08:55:36.663Z,34.75
2022-08-16T08:58:40.121Z,34.65
2022-08-16T09:02:30.965Z,35.25
2022-08-16T09:05:37.216Z,34.81
2022-08-16T09:08:47.434Z,35.39
2022-08-16T09:12:06.602Z,35.28
2022-08-16T09:15:40.079Z,35.07
2022-08-16T09:18:43.900Z,34.69
2022-08-16T09:21:55.969Z,35.15
2022-08-16T09:25:11.239Z,35.38
2022-08-16T09:29:13.576Z,35.74
2022-08-16T09:31:53.633Z,35.29
2022-08-16T09:34:58.332Z,34.91
2022-08-16T09:38:01.961Z,34.70
2022-08-16T09:41:14.868Z,35.62
2022-08-16T09:45:10.597Z,35.43
2022-08-16T09:47:56.784Z,35.82
2022-08-16T09:51:01.747Z,36.09
2022-08-16T09:54:05.554Z,36.12
2022-08-16T09:57:12.204Z,36.11
2022-08-16T10:00:42.371Z,35.82
2022-08-16T10:04:01.579Z,35.96
2022-08-16T10:07:15.035Z,36.36
2022-08-16T10:10:31.077Z,35.78
2022-08-16T10:13:34.743Z,36.27
2022-08-16T10:16:39.476Z,36.31
2022-08-16T10:19:43.463Z,36.37
2022-08-16T10:22:47.169Z,36.39
2022-08-16T10:27:18.693Z,36.40
2022-08-16T10:29:20.126Z,36.58
2022-08-16T10:32:25.857Z,37.09
2022-08-16T10:35:34.305Z,36.94
2022-08-16T10:38:52.044Z,36.86
2022-08-16T10:41:55.622Z,36.54
2022-08-16T10:44:59.042Z,36.22
2022-08-16T10:48:06.480Z,36.65
2022-08-16T10:51:34.403Z,36.70
2022-08-16T10:54:59.424Z,36.28
2022-08-16T10:58:11.649Z,37.06
2022-08-16T11:01:40.142Z,36.82
2022-08-16T11:08:07.023Z,37.15
2022-08-16T11:11:19.154Z,37.25
2022-08-16T11:14:24.413Z,36.74
2022-08-16T11:17:27.810Z,36.81
2022-08-16T11:20:42.266Z,36.46
2022-08-16T11:23:57.845Z,36.48
2022-08-16T11:30:37.681Z,36.86
2022-08-16T11:33:54.995Z,36.77
2022-08-16T11:37:01.453Z,36.68
2022-08-16T11:40:08.182Z,36.50
2022-08-16T11:43:16.787Z,36.47
2022-08-16T11:46:44.189Z,36.77
2022-08-16T11:49:44.049Z,37.37
2022-08-16T11:52:48.715Z,37.50
2022-08-16T11:55:54.555Z,37.48
2022-08-16T11:58:58.484Z,37.68
2022-08-16T12:02:04.407Z,37.43
2022-08-16T12:05:27.305Z,37.56
2022-08-16T12:08:33.203Z,37.48
2022-08-16T12:11:36.690Z,37.48
2022-08-16T12:14:41.225Z,37.61
2022-08-16T12:17:44.937Z,37.78
2022-08-16T12:20:48.429Z,37.03
2022-08-16T12:23:53.655Z,37.28
2022-08-16T12:26:57.572Z,37.32
2022-08-16T12:30:04.610Z,37.18
2022-08-16T12:33:11.947Z,37.32
2022-08-16T12:36:17.763Z,36.91
2022-08-16T12:39:22.551Z,36.83
2022-08-16T12:42:35.217Z,37.11
2022-08-16T12:45:44.707Z,36.87
2022-08-16T12:48:59.378Z,37.15
2022-08-16T12:52:02.813Z,37.01
2022-08-16T12:55:08.724Z,37.18
2022-08-16T12:58:14.165Z,36.98
2022-08-16T13:01:37.291Z,36.78
2022-08-16T13:04:40.643Z,36.90
2022-08-16T13:07:51.844Z,36.51
2022-08-16T13:10:58.308Z,36.28
2022-08-16T13:14:01.688Z,36.98
2022-08-16T13:17:17.072Z,37.43
2022-08-16T13:20:28.994Z,36.76
2022-08-16T13:23:33.220Z,37.14
2022-08-16T13:26:38.051Z,36.39
2022-08-16T13:29:43.887Z,36.43
2022-08-16T13:32:47.836Z,36.15
2022-08-16T13:35:57.670Z,35.92
2022-08-16T13:39:07.151Z,36.39
2022-08-16T13:42:13.369Z,36.09
2022-08-16T13:45:19.439Z,36.26
2022-08-16T13:48:24.812Z,35.93
2022-08-16T13:51:30.692Z,36.06
2022-08-16T13:54:34.336Z,36.52
2022-08-16T13:58:34.216Z,36.26
2022-08-16T14:01:03.377Z,36.99
2022-08-16T14:04:06.976Z,37.31
2022-08-16T14:07:24.580Z,37.58
2022-08-16T14:10:28.266Z,37.34
2022-08-16T14:13:33.140Z,36.82
2022-08-16T14:16:37.523Z,36.78
2022-08-16T14:19:45.017Z,36.76
2022-08-16T14:22:52.371Z,36.47
2022-08-16T14:25:58.388Z,36.51
2022-08-16T14:29:03.650Z,36.56
2022-08-16T14:32:09.312Z,36.13
2022-08-16T14:35:21.138Z,35.63
2022-08-16T14:38:24.433Z,35.57
2022-08-16T14:41:33.179Z,35.31
2022-08-16T14:44:39.152Z,35.37
2022-08-16T14:47:43.157Z,35.37
2022-08-16T14:50:49.566Z,35.82
2022-08-16T14:53:53.388Z,36.09
2022-08-16T14:56:57.586Z,36.58
2022-08-16T15:00:05.967Z,36.91
2022-08-16T15:03:11.205Z,36.44
2022-08-16T15:06:14.792Z,36.80
2022-08-16T15:09:20.350Z,36.89
2022-08-16T15:12:31.138Z,36.66
2022-08-16T15:15:39.873Z,36.79
2022-08-16T15:18:46.716Z,36.87
2022-08-16T15:21:53.814Z,37.02
2022-08-16T15:25:00.035Z,36.81
2022-08-16T15:28:07.017Z,36.87
2022-08-16T15:31:29.005Z,36.86
2022-08-16T15:34:32.973Z,36.76
2022-08-16T15:37:53.360Z,36.75
2022-08-16T15:40:59.140Z,36.61
2022-08-16T15:44:05.172Z,36.24
2022-08-16T15:47:16.541Z,36.28
2022-08-16T15:50:22.014Z,35.86
2022-08-16T15:53:27.425Z,35.78
2022-08-16T15:56:35.610Z,35.89
2022-08-16T15:59:49.150Z,35.68
2022-08-16T16:03:04.544Z,35.36
2022-08-16T16:06:12.286Z,34.98
2022-08-16T16:09:18.000Z,34.74
2022-08-16T16:12:53.508Z,34.46
2022-08-16T16:15:56.740Z,34.17
2022-08-16T16:19:03.132Z,34.23
2022-08-16T16:22:06.682Z,34.11
2022-08-16T16:25:10.953Z,34.14
2022-08-16T16:29:08.272Z,33.86
2022-08-16T16:31:41.443Z,33.87
2022-08-16T16:34:48.969Z,33.71
2022-08-16T16:37:56.615Z,33.72
2022-08-16T16:41:02.245Z,33.59
2022-08-16T16:44:06.193Z,33.60
2022-08-16T16:47:10.296Z,33.25
2022-08-16T16:50:16.554Z,33.07
2022-08-16T16:53:23.172Z,33.15
2022-08-16T16:56:32.330Z,32.92
2022-08-16T16:59:37.708Z,32.78
2022-08-16T17:02:49.664Z,32.59
2022-08-16T17:06:08.732Z,32.46
2022-08-16T17:09:14.021Z,32.26
2022-08-16T17:12:24.657Z,32.04
2022-08-16T17:15:36.163Z,32.07
2022-08-16T17:19:17.516Z,32.12
2022-08-16T17:22:05.443Z,31.92
2022-08-16T17:25:17.786Z,32.04
2022-08-16T17:28:58.811Z,32.12
2022-08-16T17:31:44.441Z,31.91
2022-08-16T17:34:51.537Z,31.88
2022-08-16T17:37:58.079Z,31.81
2022-08-16T17:41:02.773Z,31.74
2022-08-16T17:44:08.948Z,31.74
2022-08-16T17:47:12.814Z,31.70
2022-08-16T17:50:16.419Z,31.68
2022-08-16T17:53:21.881Z,31.78
2022-08-16T17:56:25.516Z,31.74
2022-08-16T17:59:29.006Z,31.69
2022-08-16T18:02:43.776Z,31.48
2022-08-16T18:05:49.165Z,31.32
2022-08-16T18:09:01.679Z,31.33
2022-08-16T18:12:44.528Z,31.28
2022-08-16T18:15:37.258Z,31.12
2022-08-16T18:18:40.605Z,31.15
2022-08-16T18:22:01.682Z,31.16
2022-08-16T18:25:07.599Z,30.94
2022-08-16T18:28:10.986Z,30.76
2022-08-16T18:31:14.387Z,30.88
2022-08-16T18:34:18.086Z,30.78
2022-08-16T18:37:27.672Z,30.69
2022-08-16T18:40:36.706Z,30.67
2022-08-16T18:44:22.946Z,30.64
2022-08-16T18:47:03.465Z,30.47
2022-08-16T18:50:07.779Z,30.54
2022-08-16T18:53:14.350Z,30.62
2022-08-16T18:56:19.109Z,30.67
2022-08-16T18:59:22.661Z,30.45
2022-08-16T19:02:56.759Z,30.32
2022-08-16T19:05:52.020Z,30.52
2022-08-16T19:08:55.413Z,30.42
2022-08-16T19:12:05.054Z,30.44
2022-08-16T19:15:12.029Z,30.52
2022-08-16T19:18:16.974Z,30.51
2022-08-16T19:21:20.304Z,30.47
2022-08-16T19:24:23.660Z,30.55
2022-08-16T19:27:34.082Z,30.55
2022-08-16T19:30:39.774Z,30.50
2022-08-16T19:33:53.971Z,30.29
2022-08-16T19:36:58.092Z,30.50
2022-08-16T19:40:01.910Z,30.26
2022-08-16T19:43:09.081Z,30.48
2022-08-16T19:46:12.438Z,30.24
2022-08-16T19:49:16.547Z,30.28
2022-08-16T19:52:22.337Z,30.44
2022-08-16T19:55:25.731Z,30.43
2022-08-16T19:58:30.868Z,30.29
2022-08-16T20:01:37.363Z,30.33
2022-08-16T20:04:43.780Z,29.94
2022-08-16T20:07:47.195Z,29.75
2022-08-16T20:10:51.327Z,29.74
2022-08-16T20:13:56.036Z,29.94
2022-08-16T20:17:01.144Z,29.82
2022-08-16T20:20:05.815Z,29.77
2022-08-16T20:23:24.017Z,29.79
2022-08-16T20:26:29.626Z,29.82
2022-08-16T20:29:34.644Z,29.65
2022-08-16T20:32:38.394Z,29.66
2022-08-16T20:35:42.999Z,29.49
2022-08-16T20:38:47.831Z,29.68
2022-08-16T20:41:51.693Z,29.66
2022-08-16T20:44:56.533Z,29.79
2022-08-16T20:48:00.066Z,29.65
2022-08-16T20:51:04.238Z,29.57
2022-08-16T20:54:07.596Z,29.32
2022-08-16T20:57:10.954Z,29.47
2022-08-16T21:00:17.182Z,29.59
2022-08-16T21:03:21.147Z,29.43
2022-08-16T21:06:25.721Z,29.33
2022-08-16T21:09:33.683Z,29.20
2022-08-16T21:12:37.987Z,29.34
2022-08-16T21:15:42.802Z,29.16
2022-08-16T21:18:46.889Z,28.88
2022-08-16T21:21:50.806Z,29.01
2022-08-16T21:24:54.686Z,28.92
2022-08-16T21:28:40.644Z,28.97
2022-08-16T21:31:23.752Z,28.98
2022-08-16T21:34:27.054Z,28.66
2022-08-16T21:37:30.429Z,28.78
2022-08-16T21:40:36.267Z,28.48
2022-08-16T21:43:39.646Z,28.63
2022-08-16T21:46:44.655Z,28.41
2022-08-16T21:49:47.943Z,28.43
2022-08-16T21:52:51.733Z,28.65
2022-08-16T21:55:57.111Z,28.77
2022-08-16T21:59:00.563Z,28.55
2022-08-16T22:02:05.709Z,28.59
2022-08-16T22:05:09.942Z,28.82
2022-08-16T22:08:14.024Z,28.77
2022-08-16T22:11:17.347Z,28.69
2022-08-16T22:14:20.693Z,28.54
2022-08-16T22:17:26.072Z,28.60
2022-08-16T22:20:30.521Z,28.51
2022-08-16T22:23:34.587Z,28.42
2022-08-16T22:26:42.991Z,28.67
2022-08-16T22:29:46.842Z,28.90
2022-08-16T22:32:51.943Z,28.95
2022-08-16T22:35:57.398Z,28.94
2022-08-16T22:39:03.618Z,28.77
2022-08-16T22:42:09.840Z,28.97
2022-08-16T22:45:13.941Z,29.07
2022-08-16T22:48:18.921Z,28.81
2022-08-16T22:51:23.832Z,28.98
2022-08-16T22:54:41.348Z,29.03
2022-08-16T22:57:50.492Z,28.93
2022-08-16T23:00:53.876Z,28.91
2022-08-16T23:03:58.916Z,28.90
2022-08-16T23:07:02.448Z,28.80
2022-08-16T23:10:08.380Z,28.81
2022-08-16T23:13:12.146Z,28.75
2022-08-16T23:16:15.860Z,28.87
2022-08-16T23:19:20.614Z,28.73
2022-08-16T23:22:24.646Z,28.72
2022-08-16T23:25:31.841Z,28.68
2022-08-16T23:28:35.160Z,28.71
2022-08-16T23:31:38.594Z,28.68
2022-08-16T23:34:43.435Z,28.74
2022-08-16T23:37:47.187Z,28.62
2022-08-16T23:40:51.452Z,28.65
2022-08-16T23:43:54.855Z,28.41
2022-08-16T23:46:58.239Z,27.95
2022-08-16T23:50:03.931Z,27.81
2022-08-16T23:53:10.307Z,27.48
2022-08-16T23:56:15.540Z,27.61
2022-08-16T23:59:18.876Z,27.55
